sensor_id;sensor_type;location;lat;lon;timestamp;pressure;altitude;pressure_sealevel;temperature;humidity
6224;BME280;3145;42.726;23.342;2023-07-22T00:00:46;70840.94;;;-142.70;48.59
6224;BME280;3145;42.726;23.342;2023-07-22T00:03:13;70855.03;;;-142.70;49.29
6224;BME280;3145;42.726;23.342;2023-07-22T00:05:39;70877.16;;;-142.70;49.76
6224;BME280;3145;42.726;23.342;2023-07-22T00:08:06;70889.25;;;-142.70;50.02
6224;BME280;3145;42.726;23.342;2023-07-22T00:10:33;70889.25;;;-142.70;50.34
6224;BME280;3145;42.726;23.342;2023-07-22T00:13:01;70893.28;;;-142.70;50.96
6224;BME280;3145;42.726;23.342;2023-07-22T00:15:28;70903.34;;;-142.70;51.29
6224;BME280;3145;42.726;23.342;2023-07-22T00:17:55;70895.28;;;-142.70;51.37
6224;BME280;3145;42.726;23.342;2023-07-22T00:20:22;70893.28;;;-142.70;51.42
6224;BME280;3145;42.726;23.342;2023-07-22T00:22:51;70893.28;;;-142.70;51.44
6224;BME280;3145;42.726;23.342;2023-07-22T00:25:18;70901.34;;;-142.70;51.88
6224;BME280;3145;42.726;23.342;2023-07-22T00:27:45;70897.31;;;-142.70;52.08
6224;BME280;3145;42.726;23.342;2023-07-22T00:30:13;70901.34;;;-142.70;52.37
6224;BME280;3145;42.726;23.342;2023-07-22T00:32:39;70909.38;;;-142.70;52.65
6224;BME280;3145;42.726;23.342;2023-07-22T00:35:07;70905.34;;;-142.70;52.83
6224;BME280;3145;42.726;23.342;2023-07-22T00:37:34;70909.38;;;-142.70;52.80
6224;BME280;3145;42.726;23.342;2023-07-22T00:40:01;70921.47;;;-142.70;53.35
6224;BME280;3145;42.726;23.342;2023-07-22T00:42:29;70929.53;;;-142.70;53.74
6224;BME280;3145;42.726;23.342;2023-07-22T00:44:55;70933.56;;;-142.70;54.24
6224;BME280;3145;42.726;23.342;2023-07-22T00:47:23;70937.56;;;-142.70;54.37
6224;BME280;3145;42.726;23.342;2023-07-22T00:49:50;70941.59;;;-142.70;54.55
6224;BME280;3145;42.726;23.342;2023-07-22T00:52:17;70937.56;;;-142.70;54.39
6224;BME280;3145;42.726;23.342;2023-07-22T00:54:44;70935.56;;;-142.70;54.58
6224;BME280;3145;42.726;23.342;2023-07-22T00:57:11;70933.56;;;-142.70;54.61
6224;BME280;3145;42.726;23.342;2023-07-22T00:59:39;70921.47;;;-142.70;54.68
6224;BME280;3145;42.726;23.342;2023-07-22T01:02:06;70925.50;;;-142.70;54.60
6224;BME280;3145;42.726;23.342;2023-07-22T01:04:34;70925.50;;;-142.70;54.74
6224;BME280;3145;42.726;23.342;2023-07-22T01:07:01;70925.50;;;-142.70;54.65
6224;BME280;3145;42.726;23.342;2023-07-22T01:09:34;70921.47;;;-142.70;55.01
6224;BME280;3145;42.726;23.342;2023-07-22T01:12:02;70925.50;;;-142.70;55.51
6224;BME280;3145;42.726;23.342;2023-07-22T01:14:31;70921.47;;;-142.70;55.25
6224;BME280;3145;42.726;23.342;2023-07-22T01:16:59;70933.56;;;-142.70;55.70
6224;BME280;3145;42.726;23.342;2023-07-22T01:19:26;70945.63;;;-142.70;56.27
6224;BME280;3145;42.726;23.342;2023-07-22T01:21:56;70947.66;;;-142.70;56.13
6224;BME280;3145;42.726;23.342;2023-07-22T01:24:25;70945.63;;;-142.70;56.16
6224;BME280;3145;42.726;23.342;2023-07-22T01:26:52;70941.59;;;-142.70;56.20
6224;BME280;3145;42.726;23.342;2023-07-22T01:29:18;70945.63;;;-142.70;56.60
6224;BME280;3145;42.726;23.342;2023-07-22T01:31:48;70957.72;;;-142.70;57.14
6224;BME280;3145;42.726;23.342;2023-07-22T01:34:15;70965.75;;;-142.70;57.33
6224;BME280;3145;42.726;23.342;2023-07-22T01:36:42;70977.84;;;-142.70;58.15
6224;BME280;3145;42.726;23.342;2023-07-22T01:39:09;70979.88;;;-142.70;58.18
6224;BME280;3145;42.726;23.342;2023-07-22T01:41:37;70989.94;;;-142.70;58.35
6224;BME280;3145;42.726;23.342;2023-07-22T01:44:04;70993.97;;;-142.70;58.47
6224;BME280;3145;42.726;23.342;2023-07-22T01:46:31;70985.91;;;-142.70;58.29
6224;BME280;3145;42.726;23.342;2023-07-22T01:48:57;70973.81;;;-142.70;58.35
6224;BME280;3145;42.726;23.342;2023-07-22T01:51:24;70979.88;;;-142.70;58.69
6224;BME280;3145;42.726;23.342;2023-07-22T01:53:51;70987.91;;;-142.70;59.05
6224;BME280;3145;42.726;23.342;2023-07-22T01:56:18;70993.97;;;-142.70;59.63
6224;BME280;3145;42.726;23.342;2023-07-22T01:58:47;71002.00;;;-142.70;59.90
6224;BME280;3145;42.726;23.342;2023-07-22T02:01:13;71006.03;;;-142.70;60.23
6224;BME280;3145;42.726;23.342;2023-07-22T02:03:41;71018.13;;;-142.70;60.78
6224;BME280;3145;42.726;23.342;2023-07-22T02:06:08;71022.16;;;-142.70;60.92
6224;BME280;3145;42.726;23.342;2023-07-22T02:08:35;71040.28;;;-142.70;61.50
6224;BME280;3145;42.726;23.342;2023-07-22T02:11:02;71030.19;;;-142.70;61.39
6224;BME280;3145;42.726;23.342;2023-07-22T02:13:30;71040.28;;;-142.70;61.74
6224;BME280;3145;42.726;23.342;2023-07-22T02:15:58;71048.31;;;-142.70;62.09
6224;BME280;3145;42.726;23.342;2023-07-22T02:18:25;71060.41;;;-142.70;62.39
6224;BME280;3145;42.726;23.342;2023-07-22T02:20:52;71058.41;;;-142.70;62.67
6224;BME280;3145;42.726;23.342;2023-07-22T02:23:19;71078.53;;;-142.70;62.97
6224;BME280;3145;42.726;23.342;2023-07-22T02:25:48;71078.53;;;-142.70;63.28
6224;BME280;3145;42.726;23.342;2023-07-22T02:28:15;71074.50;;;-142.70;63.60
6224;BME280;3145;42.726;23.342;2023-07-22T02:30:46;71074.50;;;-142.70;63.33
6224;BME280;3145;42.726;23.342;2023-07-22T02:33:14;71086.59;;;-142.70;63.39
6224;BME280;3145;42.726;23.342;2023-07-22T02:35:41;71084.56;;;-142.70;63.27
6224;BME280;3145;42.726;23.342;2023-07-22T02:38:08;71076.50;;;-142.70;63.07
6224;BME280;3145;42.726;23.342;2023-07-22T02:40:35;71066.44;;;-142.70;62.91
6224;BME280;3145;42.726;23.342;2023-07-22T02:43:02;71056.38;;;-142.70;62.57
6224;BME280;3145;42.726;23.342;2023-07-22T02:45:30;71044.28;;;-142.70;62.14
6224;BME280;3145;42.726;23.342;2023-07-22T02:47:57;71038.25;;;-142.70;61.84
6224;BME280;3145;42.726;23.342;2023-07-22T02:50:25;71038.25;;;-142.70;62.05
6224;BME280;3145;42.726;23.342;2023-07-22T02:52:51;71038.25;;;-142.70;61.79
6224;BME280;3145;42.726;23.342;2023-07-22T02:55:19;71050.34;;;-142.70;62.28
6224;BME280;3145;42.726;23.342;2023-07-22T02:57:46;71060.41;;;-142.70;62.50
6224;BME280;3145;42.726;23.342;2023-07-22T03:00:16;71062.41;;;-142.70;62.72
6224;BME280;3145;42.726;23.342;2023-07-22T03:02:49;71066.44;;;-142.70;62.97
6224;BME280;3145;42.726;23.342;2023-07-22T03:05:17;71074.50;;;-142.70;63.55
6224;BME280;3145;42.726;23.342;2023-07-22T03:07:45;71072.50;;;-142.70;63.45
6224;BME280;3145;42.726;23.342;2023-07-22T03:10:12;71074.50;;;-142.70;63.19
6224;BME280;3145;42.726;23.342;2023-07-22T03:12:39;71072.50;;;-142.70;63.46
6224;BME280;3145;42.726;23.342;2023-07-22T03:15:06;71068.47;;;-142.70;63.12
6224;BME280;3145;42.726;23.342;2023-07-22T03:17:34;71056.38;;;-142.70;63.21
6224;BME280;3145;42.726;23.342;2023-07-22T03:20:02;71058.41;;;-142.70;63.21
6224;BME280;3145;42.726;23.342;2023-07-22T03:22:31;71054.38;;;-142.70;62.74
6224;BME280;3145;42.726;23.342;2023-07-22T03:24:59;71050.34;;;-142.70;62.75
6224;BME280;3145;42.726;23.342;2023-07-22T03:27:25;71050.34;;;-142.70;62.18
6224;BME280;3145;42.726;23.342;2023-07-22T03:29:52;71042.28;;;-142.70;61.98
6224;BME280;3145;42.726;23.342;2023-07-22T03:32:19;71050.34;;;-142.70;61.83
6224;BME280;3145;42.726;23.342;2023-07-22T03:34:46;71046.31;;;-142.70;61.89
6224;BME280;3145;42.726;23.342;2023-07-22T03:37:12;71046.31;;;-142.70;61.44
6224;BME280;3145;42.726;23.342;2023-07-22T03:39:40;71046.31;;;-142.70;60.19
6224;BME280;3145;42.726;23.342;2023-07-22T03:42:08;71046.31;;;-142.70;59.83
6224;BME280;3145;42.726;23.342;2023-07-22T03:44:35;71034.22;;;-142.70;59.03
6224;BME280;3145;42.726;23.342;2023-07-22T03:47:01;71018.13;;;-142.70;58.45
6224;BME280;3145;42.726;23.342;2023-07-22T03:49:28;71014.09;;;-142.70;57.53
6224;BME280;3145;42.726;23.342;2023-07-22T03:51:55;71008.06;;;-142.70;57.44
6224;BME280;3145;42.726;23.342;2023-07-22T03:54:22;70991.94;;;-142.70;57.34
6224;BME280;3145;42.726;23.342;2023-07-22T03:56:48;70969.78;;;-142.70;56.84
6224;BME280;3145;42.726;23.342;2023-07-22T03:59:16;70949.66;;;-142.70;56.35
6224;BME280;3145;42.726;23.342;2023-07-22T04:01:43;70941.59;;;-142.70;55.71
6224;BME280;3145;42.726;23.342;2023-07-22T04:04:11;70917.44;;;-142.70;55.52
6224;BME280;3145;42.726;23.342;2023-07-22T04:06:38;70899.31;;;-142.70;54.79
6224;BME280;3145;42.726;23.342;2023-07-22T04:09:04;70877.16;;;-142.70;53.83
6224;BME280;3145;42.726;23.342;2023-07-22T04:11:31;70853.00;;;-142.70;53.05
6224;BME280;3145;42.726;23.342;2023-07-22T04:13:58;70844.97;;;-142.70;52.50
6224;BME280;3145;42.726;23.342;2023-07-22T04:16:26;70828.84;;;-142.70;52.27
6224;BME280;3145;42.726;23.342;2023-07-22T04:18:53;70796.63;;;-142.70;52.52
6224;BME280;3145;42.726;23.342;2023-07-22T04:21:20;70766.44;;;-142.70;51.90
6224;BME280;3145;42.726;23.342;2023-07-22T04:23:47;70750.31;;;-142.70;50.13
6224;BME280;3145;42.726;23.342;2023-07-22T04:26:14;70744.28;;;-142.70;49.21
6224;BME280;3145;42.726;23.342;2023-07-22T04:28:41;70732.19;;;-142.70;49.06
6224;BME280;3145;42.726;23.342;2023-07-22T04:31:08;70712.06;;;-142.70;49.58
6224;BME280;3145;42.726;23.342;2023-07-22T04:33:36;70691.94;;;-142.70;49.08
6224;BME280;3145;42.726;23.342;2023-07-22T04:36:03;70667.78;;;-142.70;48.48
6224;BME280;3145;42.726;23.342;2023-07-22T04:38:30;70635.56;;;-142.70;48.00
6224;BME280;3145;42.726;23.342;2023-07-22T04:40:56;70601.31;;;-142.70;47.89
6224;BME280;3145;42.726;23.342;2023-07-22T04:43:24;70573.13;;;-142.70;46.69
6224;BME280;3145;42.726;23.342;2023-07-22T04:45:52;70534.88;;;-142.70;45.96
6224;BME280;3145;42.726;23.342;2023-07-22T04:48:20;70518.78;;;-142.70;44.99
6224;BME280;3145;42.726;23.342;2023-07-22T04:50:48;70498.66;;;-142.70;43.99
6224;BME280;3145;42.726;23.342;2023-07-22T04:53:16;70474.50;;;-142.70;43.56
6224;BME280;3145;42.726;23.342;2023-07-22T04:55:43;70490.59;;;-142.70;43.49
6224;BME280;3145;42.726;23.342;2023-07-22T04:58:10;70490.59;;;-142.70;44.35
6224;BME280;3145;42.726;23.342;2023-07-22T05:00:37;70478.50;;;-142.70;44.11
6224;BME280;3145;42.726;23.342;2023-07-22T05:03:04;70482.53;;;-142.70;44.55
6224;BME280;3145;42.726;23.342;2023-07-22T05:05:31;70450.31;;;-142.70;43.89
6224;BME280;3145;42.726;23.342;2023-07-22T05:07:59;70410.06;;;-142.70;43.47
6224;BME280;3145;42.726;23.342;2023-07-22T05:10:27;70393.97;;;-142.70;43.20
6224;BME280;3145;42.726;23.342;2023-07-22T05:12:54;70418.13;;;-142.70;43.44
6224;BME280;3145;42.726;23.342;2023-07-22T05:15:22;70389.94;;;-142.70;42.18
6224;BME280;3145;42.726;23.342;2023-07-22T05:17:49;70361.75;;;-142.70;41.41
6224;BME280;3145;42.726;23.342;2023-07-22T05:20:15;70329.53;;;-142.70;41.70
6224;BME280;3145;42.726;23.342;2023-07-22T05:22:42;70329.53;;;-142.70;41.27
6224;BME280;3145;42.726;23.342;2023-07-22T05:25:11;70345.63;;;-142.70;41.37
6224;BME280;3145;42.726;23.342;2023-07-22T05:27:37;70337.59;;;-142.70;41.52
6224;BME280;3145;42.726;23.342;2023-07-22T05:30:05;70329.53;;;-142.70;41.39
6224;BME280;3145;42.726;23.342;2023-07-22T05:32:32;70349.66;;;-142.70;41.39
6224;BME280;3145;42.726;23.342;2023-07-22T05:34:59;70377.84;;;-142.70;42.58
6224;BME280;3145;42.726;23.342;2023-07-22T05:37:26;70313.44;;;-142.70;42.06
6224;BME280;3145;42.726;23.342;2023-07-22T05:39:53;70307.38;;;-142.70;40.90
6224;BME280;3145;42.726;23.342;2023-07-22T05:42:21;70347.66;;;-142.70;42.05
6224;BME280;3145;42.726;23.342;2023-07-22T05:44:48;70369.81;;;-142.70;42.76
6224;BME280;3145;42.726;23.342;2023-07-22T05:47:15;70343.63;;;-142.70;41.92
6224;BME280;3145;42.726;23.342;2023-07-22T05:49:41;70329.53;;;-142.70;41.31
6224;BME280;3145;42.726;23.342;2023-07-22T05:52:08;70337.59;;;-142.70;41.22
6224;BME280;3145;42.726;23.342;2023-07-22T05:54:35;70400.00;;;-142.70;42.86
6224;BME280;3145;42.726;23.342;2023-07-22T05:57:02;70418.13;;;-142.70;43.20
6224;BME280;3145;42.726;23.342;2023-07-22T05:59:30;70385.91;;;-142.70;42.64
6224;BME280;3145;42.726;23.342;2023-07-22T06:01:57;70414.09;;;-142.70;43.50
6224;BME280;3145;42.726;23.342;2023-07-22T06:04:24;70397.97;;;-142.70;43.64
6224;BME280;3145;42.726;23.342;2023-07-22T06:06:50;70345.63;;;-142.70;42.99
6224;BME280;3145;42.726;23.342;2023-07-22T06:09:17;70335.56;;;-142.70;41.40
6224;BME280;3145;42.726;23.342;2023-07-22T06:11:45;70315.44;;;-142.70;41.45
6224;BME280;3145;42.726;23.342;2023-07-22T06:14:12;70279.19;;;-142.70;41.04
6224;BME280;3145;42.726;23.342;2023-07-22T06:16:40;70265.13;;;-142.70;41.09
6224;BME280;3145;42.726;23.342;2023-07-22T06:19:06;70285.25;;;-142.70;40.44
6224;BME280;3145;42.726;23.342;2023-07-22T06:21:33;70273.16;;;-142.70;40.37
6224;BME280;3145;42.726;23.342;2023-07-22T06:24:00;70230.88;;;-142.70;39.81
6224;BME280;3145;42.726;23.342;2023-07-22T06:26:26;70198.69;;;-142.70;40.02
6224;BME280;3145;42.726;23.342;2023-07-22T06:28:53;70238.94;;;-142.70;39.39
6224;BME280;3145;42.726;23.342;2023-07-22T06:31:20;70309.41;;;-142.70;40.21
6224;BME280;3145;42.726;23.342;2023-07-22T06:33:48;70271.16;;;-142.70;41.25
6224;BME280;3145;42.726;23.342;2023-07-22T06:36:15;70242.97;;;-142.70;40.34
6224;BME280;3145;42.726;23.342;2023-07-22T06:38:43;70198.69;;;-142.70;39.68
6224;BME280;3145;42.726;23.342;2023-07-22T06:41:09;70240.94;;;-142.70;39.08
6224;BME280;3145;42.726;23.342;2023-07-22T06:43:36;70253.03;;;-142.70;40.02
6224;BME280;3145;42.726;23.342;2023-07-22T06:46:03;70249.00;;;-142.70;39.54
6224;BME280;3145;42.726;23.342;2023-07-22T06:48:30;70188.63;;;-142.70;40.09
6224;BME280;3145;42.726;23.342;2023-07-22T06:50:58;70293.28;;;-142.70;39.61
6224;BME280;3145;42.726;23.342;2023-07-22T06:53:24;70305.38;;;-142.70;41.07
6224;BME280;3145;42.726;23.342;2023-07-22T06:55:52;70244.97;;;-142.70;41.41
6224;BME280;3145;42.726;23.342;2023-07-22T06:58:19;70263.09;;;-142.70;39.75
6224;BME280;3145;42.726;23.342;2023-07-22T07:00:45;70281.22;;;-142.70;40.17
6224;BME280;3145;42.726;23.342;2023-07-22T07:03:12;70261.09;;;-142.70;41.07
6224;BME280;3145;42.726;23.342;2023-07-22T07:05:39;70289.28;;;-142.70;40.88
6224;BME280;3145;42.726;23.342;2023-07-22T07:08:08;70283.22;;;-142.70;40.85
6224;BME280;3145;42.726;23.342;2023-07-22T07:10:37;70228.88;;;-142.70;40.74
6224;BME280;3145;42.726;23.342;2023-07-22T07:13:05;70164.44;;;-142.70;40.38
6224;BME280;3145;42.726;23.342;2023-07-22T07:15:32;70144.31;;;-142.70;38.00
6224;BME280;3145;42.726;23.342;2023-07-22T07:17:58;70168.47;;;-142.70;37.97
6224;BME280;3145;42.726;23.342;2023-07-22T07:20:25;70164.44;;;-142.70;38.73
6224;BME280;3145;42.726;23.342;2023-07-22T07:22:52;70142.31;;;-142.70;38.96
6224;BME280;3145;42.726;23.342;2023-07-22T07:25:20;70128.22;;;-142.70;39.17
6224;BME280;3145;42.726;23.342;2023-07-22T07:27:47;70134.25;;;-142.70;38.15
6224;BME280;3145;42.726;23.342;2023-07-22T07:30:14;70126.22;;;-142.70;38.23
6224;BME280;3145;42.726;23.342;2023-07-22T07:32:40;70067.81;;;-142.70;37.15
6224;BME280;3145;42.726;23.342;2023-07-22T07:35:08;70047.69;;;-142.70;36.56
6224;BME280;3145;42.726;23.342;2023-07-22T07:37:34;70083.94;;;-142.70;36.69
6224;BME280;3145;42.726;23.342;2023-07-22T07:40:02;70035.63;;;-142.70;36.82
6224;BME280;3145;42.726;23.342;2023-07-22T07:42:30;70073.88;;;-142.70;36.20
6224;BME280;3145;42.726;23.342;2023-07-22T07:44:57;70083.94;;;-142.70;35.67
6224;BME280;3145;42.726;23.342;2023-07-22T07:47:24;70039.66;;;-142.70;35.86
6224;BME280;3145;42.726;23.342;2023-07-22T07:49:50;70057.75;;;-142.70;35.76
6224;BME280;3145;42.726;23.342;2023-07-22T07:52:17;70035.63;;;-142.70;36.10
6224;BME280;3145;42.726;23.342;2023-07-22T07:54:44;70057.75;;;-142.70;36.72
6224;BME280;3145;42.726;23.342;2023-07-22T07:57:11;70045.69;;;-142.70;36.04
6224;BME280;3145;42.726;23.342;2023-07-22T07:59:39;70031.59;;;-142.70;36.56
6224;BME280;3145;42.726;23.342;2023-07-22T08:02:06;69977.25;;;-142.70;35.14
6224;BME280;3145;42.726;23.342;2023-07-22T08:04:34;69939.00;;;-142.70;35.81
6224;BME280;3145;42.726;23.342;2023-07-22T08:07:01;69967.19;;;-142.70;35.00
6224;BME280;3145;42.726;23.342;2023-07-22T08:09:30;69971.19;;;-142.70;35.25
6224;BME280;3145;42.726;23.342;2023-07-22T08:11:57;69977.25;;;-142.70;34.90
6224;BME280;3145;42.726;23.342;2023-07-22T08:14:24;70031.59;;;-142.70;35.43
6224;BME280;3145;42.726;23.342;2023-07-22T08:16:53;70011.47;;;-142.70;35.72
6224;BME280;3145;42.726;23.342;2023-07-22T08:19:20;69979.25;;;-142.70;35.27
6224;BME280;3145;42.726;23.342;2023-07-22T08:21:47;69916.84;;;-142.70;35.25
6224;BME280;3145;42.726;23.342;2023-07-22T08:24:13;69850.41;;;-142.70;34.03
6224;BME280;3145;42.726;23.342;2023-07-22T08:26:40;69850.41;;;-142.70;33.72
6224;BME280;3145;42.726;23.342;2023-07-22T08:29:07;69830.28;;;-142.70;33.87
6224;BME280;3145;42.726;23.342;2023-07-22T08:31:34;69858.47;;;-142.70;33.94
6224;BME280;3145;42.726;23.342;2023-07-22T08:34:02;69854.44;;;-142.70;33.89
6224;BME280;3145;42.726;23.342;2023-07-22T08:36:29;69902.75;;;-142.70;34.75
6224;BME280;3145;42.726;23.342;2023-07-22T08:38:56;69886.66;;;-142.70;34.60
6224;BME280;3145;42.726;23.342;2023-07-22T08:41:23;69886.66;;;-142.70;34.35
6224;BME280;3145;42.726;23.342;2023-07-22T08:43:51;69850.41;;;-142.70;34.43
6224;BME280;3145;42.726;23.342;2023-07-22T08:46:19;69808.16;;;-142.70;34.55
6224;BME280;3145;42.726;23.342;2023-07-22T08:48:46;69802.13;;;-142.70;33.54
6224;BME280;3145;42.726;23.342;2023-07-22T08:51:16;69830.28;;;-142.70;34.17
6224;BME280;3145;42.726;23.342;2023-07-22T08:53:44;69834.31;;;-142.70;33.92
6224;BME280;3145;42.726;23.342;2023-07-22T08:56:11;69866.53;;;-142.70;34.40
6224;BME280;3145;42.726;23.342;2023-07-22T08:58:38;69882.63;;;-142.70;34.90
6224;BME280;3145;42.726;23.342;2023-07-22T09:01:05;69818.22;;;-142.70;33.62
6224;BME280;3145;42.726;23.342;2023-07-22T09:03:33;69767.91;;;-142.70;34.43
6224;BME280;3145;42.726;23.342;2023-07-22T09:06:00;69753.81;;;-142.70;32.72
6224;BME280;3145;42.726;23.342;2023-07-22T09:08:29;69761.84;;;-142.70;32.87
6224;BME280;3145;42.726;23.342;2023-07-22T09:10:56;69747.75;;;-142.70;32.46
6224;BME280;3145;42.726;23.342;2023-07-22T09:13:25;69721.59;;;-142.70;32.87
6224;BME280;3145;42.726;23.342;2023-07-22T09:15:53;69693.41;;;-142.70;32.55
6224;BME280;3145;42.726;23.342;2023-07-22T09:18:20;69725.63;;;-142.70;32.66
6224;BME280;3145;42.726;23.342;2023-07-22T09:20:46;69828.28;;;-142.70;33.55
6224;BME280;3145;42.726;23.342;2023-07-22T09:23:13;69773.94;;;-142.70;33.88
6224;BME280;3145;42.726;23.342;2023-07-22T09:25:42;69784.00;;;-142.70;33.45
6224;BME280;3145;42.726;23.342;2023-07-22T09:28:09;69737.69;;;-142.70;33.11
6224;BME280;3145;42.726;23.342;2023-07-22T09:30:37;69757.84;;;-142.70;32.44
6224;BME280;3145;42.726;23.342;2023-07-22T09:33:06;69753.81;;;-142.70;33.47
6224;BME280;3145;42.726;23.342;2023-07-22T09:35:44;69804.13;;;-142.70;32.92
6224;BME280;3145;42.726;23.342;2023-07-22T09:38:11;69765.88;;;-142.70;32.87
6224;BME280;3145;42.726;23.342;2023-07-22T09:40:40;69775.94;;;-142.70;33.36
6224;BME280;3145;42.726;23.342;2023-07-22T09:43:10;69757.84;;;-142.70;33.25
6224;BME280;3145;42.726;23.342;2023-07-22T09:45:37;69773.94;;;-142.70;32.81
6224;BME280;3145;42.726;23.342;2023-07-22T09:48:05;69733.69;;;-142.70;32.92
6224;BME280;3145;42.726;23.342;2023-07-22T09:50:32;69689.41;;;-142.70;31.91
6224;BME280;3145;42.726;23.342;2023-07-22T09:52:59;69612.91;;;-142.70;32.11
6224;BME280;3145;42.726;23.342;2023-07-22T09:55:27;69556.53;;;-142.70;30.88
6224;BME280;3145;42.726;23.342;2023-07-22T09:57:55;69516.28;;;-142.70;31.66
6224;BME280;3145;42.726;23.342;2023-07-22T10:00:25;69482.06;;;-142.70;31.10
6224;BME280;3145;42.726;23.342;2023-07-22T10:02:56;69451.88;;;-142.70;30.42
6224;BME280;3145;42.726;23.342;2023-07-22T10:05:24;69516.28;;;-142.70;30.74
6224;BME280;3145;42.726;23.342;2023-07-22T10:07:53;69522.34;;;-142.70;30.63
6224;BME280;3145;42.726;23.342;2023-07-22T10:10:29;69612.91;;;-142.70;31.27
6224;BME280;3145;42.726;23.342;2023-07-22T10:12:57;69649.13;;;-142.70;30.82
6224;BME280;3145;42.726;23.342;2023-07-22T10:15:28;69624.97;;;-142.70;31.24
6224;BME280;3145;42.726;23.342;2023-07-22T10:17:56;69622.97;;;-142.70;31.72
6224;BME280;3145;42.726;23.342;2023-07-22T10:20:24;69586.75;;;-142.70;31.52
6224;BME280;3145;42.726;23.342;2023-07-22T10:22:51;69524.34;;;-142.70;31.11
6224;BME280;3145;42.726;23.342;2023-07-22T10:25:18;69455.91;;;-142.70;31.20
6224;BME280;3145;42.726;23.342;2023-07-22T10:27:46;69459.94;;;-142.70;29.67
6224;BME280;3145;42.726;23.342;2023-07-22T10:30:14;69437.78;;;-142.70;30.62
6224;BME280;3145;42.726;23.342;2023-07-22T10:32:44;69427.72;;;-142.70;28.65
6224;BME280;3145;42.726;23.342;2023-07-22T10:35:13;69367.34;;;-142.70;28.38
6224;BME280;3145;42.726;23.342;2023-07-22T10:37:44;69355.28;;;-142.70;27.66
6224;BME280;3145;42.726;23.342;2023-07-22T10:40:19;69304.97;;;-142.70;28.13
6224;BME280;3145;42.726;23.342;2023-07-22T10:42:57;69315.03;;;-142.70;27.58
6224;BME280;3145;42.726;23.342;2023-07-22T10:45:26;69298.94;;;-142.70;27.17
6224;BME280;3145;42.726;23.342;2023-07-22T10:48:05;69264.72;;;-142.70;27.33
6224;BME280;3145;42.726;23.342;2023-07-22T10:50:43;69262.69;;;-142.70;27.55
6224;BME280;3145;42.726;23.342;2023-07-22T10:53:13;69317.03;;;-142.70;26.79
6224;BME280;3145;42.726;23.342;2023-07-22T10:56:02;69272.75;;;-142.70;27.35
6224;BME280;3145;42.726;23.342;2023-07-22T10:58:30;69292.88;;;-142.70;26.79
6224;BME280;3145;42.726;23.342;2023-07-22T11:01:22;69306.97;;;-142.70;26.98
6224;BME280;3145;42.726;23.342;2023-07-22T11:04:09;69256.66;;;-142.70;26.71
6224;BME280;3145;42.726;23.342;2023-07-22T11:06:37;69262.69;;;-142.70;26.35
6224;BME280;3145;42.726;23.342;2023-07-22T11:09:04;69234.53;;;-142.70;27.20
6224;BME280;3145;42.726;23.342;2023-07-22T11:11:38;69200.31;;;-142.70;26.58
6224;BME280;3145;42.726;23.342;2023-07-22T11:14:15;69184.22;;;-142.70;26.45
6224;BME280;3145;42.726;23.342;2023-07-22T11:16:42;69154.03;;;-142.70;26.23
6224;BME280;3145;42.726;23.342;2023-07-22T11:19:12;69174.16;;;-142.70;25.73
6224;BME280;3145;42.726;23.342;2023-07-22T11:21:39;69166.09;;;-142.70;25.65
6224;BME280;3145;42.726;23.342;2023-07-22T11:24:07;69160.06;;;-142.70;25.88
6224;BME280;3145;42.726;23.342;2023-07-22T11:26:34;69139.94;;;-142.70;25.56
6224;BME280;3145;42.726;23.342;2023-07-22T11:29:01;69174.16;;;-142.70;25.87
6224;BME280;3145;42.726;23.342;2023-07-22T11:31:32;69214.41;;;-142.70;26.17
6224;BME280;3145;42.726;23.342;2023-07-22T11:33:59;69240.56;;;-142.70;26.19
6224;BME280;3145;42.726;23.342;2023-07-22T11:36:27;69278.81;;;-142.70;26.62
6224;BME280;3145;42.726;23.342;2023-07-22T11:38:54;69250.63;;;-142.70;26.77
6224;BME280;3145;42.726;23.342;2023-07-22T11:41:21;69234.53;;;-142.70;26.95
6224;BME280;3145;42.726;23.342;2023-07-22T11:43:48;69214.41;;;-142.70;26.77
6224;BME280;3145;42.726;23.342;2023-07-22T11:46:15;69190.25;;;-142.70;27.05
6224;BME280;3145;42.726;23.342;2023-07-22T11:48:49;69160.06;;;-142.70;26.97
6224;BME280;3145;42.726;23.342;2023-07-22T11:51:17;69125.84;;;-142.70;26.89
6224;BME280;3145;42.726;23.342;2023-07-22T11:53:47;69109.75;;;-142.70;26.51
6224;BME280;3145;42.726;23.342;2023-07-22T11:56:19;69139.94;;;-142.70;26.78
6224;BME280;3145;42.726;23.342;2023-07-22T11:58:50;69111.75;;;-142.70;26.66
6224;BME280;3145;42.726;23.342;2023-07-22T12:01:17;69123.84;;;-142.70;26.57
6224;BME280;3145;42.726;23.342;2023-07-22T12:03:44;69182.19;;;-142.70;27.06
6224;BME280;3145;42.726;23.342;2023-07-22T12:06:11;69182.19;;;-142.70;27.50
6224;BME280;3145;42.726;23.342;2023-07-22T12:08:43;69194.28;;;-142.70;27.35
6224;BME280;3145;42.726;23.342;2023-07-22T12:11:17;69204.34;;;-142.70;27.38
6224;BME280;3145;42.726;23.342;2023-07-22T12:13:44;69250.63;;;-142.70;27.04
6224;BME280;3145;42.726;23.342;2023-07-22T12:16:21;69202.31;;;-142.70;27.51
6224;BME280;3145;42.726;23.342;2023-07-22T12:18:48;69218.41;;;-142.70;26.83
6224;BME280;3145;42.726;23.342;2023-07-22T12:21:16;69200.31;;;-142.70;27.12
6224;BME280;3145;42.726;23.342;2023-07-22T12:23:43;69194.28;;;-142.70;26.99
6224;BME280;3145;42.726;23.342;2023-07-22T12:26:09;69206.34;;;-142.70;27.19
6224;BME280;3145;42.726;23.342;2023-07-22T12:28:37;69202.31;;;-142.70;27.50
6224;BME280;3145;42.726;23.342;2023-07-22T12:31:04;69166.09;;;-142.70;27.02
6224;BME280;3145;42.726;23.342;2023-07-22T12:33:31;69139.94;;;-142.70;26.83
6224;BME280;3145;42.726;23.342;2023-07-22T12:35:57;69129.88;;;-142.70;27.20
6224;BME280;3145;42.726;23.342;2023-07-22T12:38:24;69121.81;;;-142.70;26.83
6224;BME280;3145;42.726;23.342;2023-07-22T12:40:51;69097.66;;;-142.70;26.77
6224;BME280;3145;42.726;23.342;2023-07-22T12:43:17;69121.81;;;-142.70;27.06
6224;BME280;3145;42.726;23.342;2023-07-22T12:45:46;69170.13;;;-142.70;27.04
6224;BME280;3145;42.726;23.342;2023-07-22T12:48:12;69162.06;;;-142.70;27.23
6224;BME280;3145;42.726;23.342;2023-07-22T12:50:39;69145.97;;;-142.70;27.21
6224;BME280;3145;42.726;23.342;2023-07-22T12:53:06;69129.88;;;-142.70;27.02